sensor_id;sensor_type;location;lat;lon;timestamp;temperature;humidity
44817;DHT22;30529;53.570;9.964;2023-04-16T00:01:28;8.00;99.90
44817;DHT22;30529;53.570;9.964;2023-04-16T00:03:54;7.90;99.90
44817;DHT22;30529;53.570;9.964;2023-04-16T00:06:20;7.90;99.90
44817;DHT22;30529;53.570;9.964;2023-04-16T00:08:46;7.90;99.90
44817;DHT22;30529;53.570;9.964;2023-04-16T00:11:12;7.80;99.90
44817;DHT22;30529;53.570;9.964;2023-04-16T00:13:47;7.80;99.90
44817;DHT22;30529;53.570;9.964;2023-04-16T00:16:13;7.80;99.90
44817;DHT22;30529;53.570;9.964;2023-04-16T00:18:39;7.90;99.90
44817;DHT22;30529;53.570;9.964;2023-04-16T00:21:06;7.90;99.90
44817;DHT22;30529;53.570;9.964;2023-04-16T00:23:32;7.90;99.90
44817;DHT22;30529;53.570;9.964;2023-04-16T00:25:58;7.90;99.90
44817;DHT22;30529;53.570;9.964;2023-04-16T00:28:27;7.80;99.90
44817;DHT22;30529;53.570;9.964;2023-04-16T00:30:54;7.90;99.90
44817;DHT22;30529;53.570;9.964;2023-04-16T00:33:23;7.80;99.90
44817;DHT22;30529;53.570;9.964;2023-04-16T00:35:50;7.90;99.90
44817;DHT22;30529;53.570;9.964;2023-04-16T00:38:16;7.80;99.90
44817;DHT22;30529;53.570;9.964;2023-04-16T00:40:42;7.80;99.90
44817;DHT22;30529;53.570;9.964;2023-04-16T00:43:08;7.80;99.90
44817;DHT22;30529;53.570;9.964;2023-04-16T00:45:34;7.90;99.90
44817;DHT22;30529;53.570;9.964;2023-04-16T00:48:00;7.90;99.90
44817;DHT22;30529;53.570;9.964;2023-04-16T00:50:26;7.90;99.90
44817;DHT22;30529;53.570;9.964;2023-04-16T00:52:52;7.90;99.90
44817;DHT22;30529;53.570;9.964;2023-04-16T00:55:19;7.90;99.90
44817;DHT22;30529;53.570;9.964;2023-04-16T00:57:46;8.00;99.90
44817;DHT22;30529;53.570;9.964;2023-04-16T01:00:12;7.90;99.90
44817;DHT22;30529;53.570;9.964;2023-04-16T01:02:38;7.90;99.90
44817;DHT22;30529;53.570;9.964;2023-04-16T01:05:04;7.90;99.90
44817;DHT22;30529;53.570;9.964;2023-04-16T01:07:31;8.00;99.90
44817;DHT22;30529;53.570;9.964;2023-04-16T01:09:57;7.90;99.90
44817;DHT22;30529;53.570;9.964;2023-04-16T01:12:23;7.90;99.90
44817;DHT22;30529;53.570;9.964;2023-04-16T01:14:49;8.00;99.90
44817;DHT22;30529;53.570;9.964;2023-04-16T01:17:15;7.90;99.90
44817;DHT22;30529;53.570;9.964;2023-04-16T01:19:42;8.00;99.90
44817;DHT22;30529;53.570;9.964;2023-04-16T01:22:08;8.00;99.90
44817;DHT22;30529;53.570;9.964;2023-04-16T01:24:34;8.10;99.90
44817;DHT22;30529;53.570;9.964;2023-04-16T01:27:01;8.10;99.90
44817;DHT22;30529;53.570;9.964;2023-04-16T01:29:27;8.10;99.90
44817;DHT22;30529;53.570;9.964;2023-04-16T01:31:53;8.10;99.90
44817;DHT22;30529;53.570;9.964;2023-04-16T01:34:19;8.10;99.90
44817;DHT22;30529;53.570;9.964;2023-04-16T01:36:45;8.10;99.90
44817;DHT22;30529;53.570;9.964;2023-04-16T01:39:10;8.10;99.90
44817;DHT22;30529;53.570;9.964;2023-04-16T01:41:40;8.10;99.90
44817;DHT22;30529;53.570;9.964;2023-04-16T01:44:06;8.10;99.90
44817;DHT22;30529;53.570;9.964;2023-04-16T01:46:34;8.10;99.90
44817;DHT22;30529;53.570;9.964;2023-04-16T01:49:00;8.10;99.90
44817;DHT22;30529;53.570;9.964;2023-04-16T01:51:27;8.20;99.90
44817;DHT22;30529;53.570;9.964;2023-04-16T01:53:53;8.20;99.90
44817;DHT22;30529;53.570;9.964;2023-04-16T01:56:19;8.20;99.90
44817;DHT22;30529;53.570;9.964;2023-04-16T01:58:45;8.20;99.90
44817;DHT22;30529;53.570;9.964;2023-04-16T02:01:12;8.20;99.90
44817;DHT22;30529;53.570;9.964;2023-04-16T02:03:39;8.30;99.90
44817;DHT22;30529;53.570;9.964;2023-04-16T02:06:05;8.20;99.90
44817;DHT22;30529;53.570;9.964;2023-04-16T02:08:31;8.20;99.90
44817;DHT22;30529;53.570;9.964;2023-04-16T02:10:57;8.20;99.90
44817;DHT22;30529;53.570;9.964;2023-04-16T02:13:23;8.30;99.90
44817;DHT22;30529;53.570;9.964;2023-04-16T02:15:51;8.30;99.90
44817;DHT22;30529;53.570;9.964;2023-04-16T02:18:17;8.30;99.90
44817;DHT22;30529;53.570;9.964;2023-04-16T02:20:45;8.40;99.90
44817;DHT22;30529;53.570;9.964;2023-04-16T02:23:11;8.30;99.90
44817;DHT22;30529;53.570;9.964;2023-04-16T02:25:40;8.30;99.90
44817;DHT22;30529;53.570;9.964;2023-04-16T02:28:08;8.30;99.90
44817;DHT22;30529;53.570;9.964;2023-04-16T02:30:35;8.30;99.90
44817;DHT22;30529;53.570;9.964;2023-04-16T02:33:06;8.30;99.90
44817;DHT22;30529;53.570;9.964;2023-04-16T02:35:36;8.30;99.90
44817;DHT22;30529;53.570;9.964;2023-04-16T02:38:03;8.40;99.90
44817;DHT22;30529;53.570;9.964;2023-04-16T02:40:30;8.40;99.90
44817;DHT22;30529;53.570;9.964;2023-04-16T02:42:57;8.40;99.90
44817;DHT22;30529;53.570;9.964;2023-04-16T02:45:23;8.40;99.90
44817;DHT22;30529;53.570;9.964;2023-04-16T02:47:50;8.40;99.90
44817;DHT22;30529;53.570;9.964;2023-04-16T02:50:16;8.40;99.90
44817;DHT22;30529;53.570;9.964;2023-04-16T02:52:43;8.40;99.90
44817;DHT22;30529;53.570;9.964;2023-04-16T02:55:09;8.40;99.90
44817;DHT22;30529;53.570;9.964;2023-04-16T02:57:36;8.40;99.90
44817;DHT22;30529;53.570;9.964;2023-04-16T03:00:02;8.40;99.90
44817;DHT22;30529;53.570;9.964;2023-04-16T03:02:29;8.40;99.90
44817;DHT22;30529;53.570;9.964;2023-04-16T03:04:56;8.40;99.90
44817;DHT22;30529;53.570;9.964;2023-04-16T03:07:22;8.40;99.90
44817;DHT22;30529;53.570;9.964;2023-04-16T03:09:48;8.40;99.90
44817;DHT22;30529;53.570;9.964;2023-04-16T03:12:14;8.40;99.90
44817;DHT22;30529;53.570;9.964;2023-04-16T03:14:40;8.40;99.90
44817;DHT22;30529;53.570;9.964;2023-04-16T03:17:06;8.40;99.90
44817;DHT22;30529;53.570;9.964;2023-04-16T03:19:32;8.40;99.90
44817;DHT22;30529;53.570;9.964;2023-04-16T03:21:57;8.40;99.90
44817;DHT22;30529;53.570;9.964;2023-04-16T03:24:23;8.40;99.90
44817;DHT22;30529;53.570;9.964;2023-04-16T03:26:49;8.40;99.90
44817;DHT22;30529;53.570;9.964;2023-04-16T03:29:15;8.40;99.90
44817;DHT22;30529;53.570;9.964;2023-04-16T03:31:41;8.40;99.90
44817;DHT22;30529;53.570;9.964;2023-04-16T03:34:07;8.40;99.90
44817;DHT22;30529;53.570;9.964;2023-04-16T03:36:33;8.40;99.90
44817;DHT22;30529;53.570;9.964;2023-04-16T03:38:59;8.40;99.90
44817;DHT22;30529;53.570;9.964;2023-04-16T03:41:25;8.50;99.90
44817;DHT22;30529;53.570;9.964;2023-04-16T03:43:51;8.50;99.90
44817;DHT22;30529;53.570;9.964;2023-04-16T03:46:17;8.50;99.90
44817;DHT22;30529;53.570;9.964;2023-04-16T03:48:43;8.50;99.90
44817;DHT22;30529;53.570;9.964;2023-04-16T03:51:09;8.50;99.90
44817;DHT22;30529;53.570;9.964;2023-04-16T03:53:35;8.50;99.90
44817;DHT22;30529;53.570;9.964;2023-04-16T03:56:01;8.40;99.90
44817;DHT22;30529;53.570;9.964;2023-04-16T03:58:27;8.50;99.90
44817;DHT22;30529;53.570;9.964;2023-04-16T04:00:53;8.50;99.90
44817;DHT22;30529;53.570;9.964;2023-04-16T04:03:20;8.50;99.90
44817;DHT22;30529;53.570;9.964;2023-04-16T04:05:46;8.50;99.90
44817;DHT22;30529;53.570;9.964;2023-04-16T04:08:12;8.50;99.90
44817;DHT22;30529;53.570;9.964;2023-04-16T04:10:38;8.40;99.90
44817;DHT22;30529;53.570;9.964;2023-04-16T04:13:05;8.50;99.90
44817;DHT22;30529;53.570;9.964;2023-04-16T04:15:31;8.50;99.90
44817;DHT22;30529;53.570;9.964;2023-04-16T04:17:57;8.60;99.90
44817;DHT22;30529;53.570;9.964;2023-04-16T04:20:24;8.60;99.90
44817;DHT22;30529;53.570;9.964;2023-04-16T04:22:50;8.50;99.90
44817;DHT22;30529;53.570;9.964;2023-04-16T04:25:16;8.50;99.90
44817;DHT22;30529;53.570;9.964;2023-04-16T04:27:42;8.60;99.90
44817;DHT22;30529;53.570;9.964;2023-04-16T04:30:09;8.60;99.90
44817;DHT22;30529;53.570;9.964;2023-04-16T04:32:35;8.60;99.90
44817;DHT22;30529;53.570;9.964;2023-04-16T04:35:02;8.60;99.90
44817;DHT22;30529;53.570;9.964;2023-04-16T04:37:28;8.60;99.90
44817;DHT22;30529;53.570;9.964;2023-04-16T04:39:54;8.60;99.90
44817;DHT22;30529;53.570;9.964;2023-04-16T04:42:20;8.60;99.90
44817;DHT22;30529;53.570;9.964;2023-04-16T04:44:47;8.60;99.90
44817;DHT22;30529;53.570;9.964;2023-04-16T04:47:14;8.60;99.90
44817;DHT22;30529;53.570;9.964;2023-04-16T04:49:40;8.70;99.90
44817;DHT22;30529;53.570;9.964;2023-04-16T04:52:07;8.70;99.90
44817;DHT22;30529;53.570;9.964;2023-04-16T04:54:33;8.70;99.90
44817;DHT22;30529;53.570;9.964;2023-04-16T04:56:59;8.80;99.90
44817;DHT22;30529;53.570;9.964;2023-04-16T04:59:25;8.70;99.90
44817;DHT22;30529;53.570;9.964;2023-04-16T05:01:51;8.70;99.90
44817;DHT22;30529;53.570;9.964;2023-04-16T05:04:17;8.80;99.90
44817;DHT22;30529;53.570;9.964;2023-04-16T05:06:43;8.70;99.90
44817;DHT22;30529;53.570;9.964;2023-04-16T05:09:09;8.80;99.90
44817;DHT22;30529;53.570;9.964;2023-04-16T05:11:41;8.80;99.90
44817;DHT22;30529;53.570;9.964;2023-04-16T05:14:07;8.90;99.90
44817;DHT22;30529;53.570;9.964;2023-04-16T05:16:36;9.00;99.90
44817;DHT22;30529;53.570;9.964;2023-04-16T05:19:03;8.90;99.90
44817;DHT22;30529;53.570;9.964;2023-04-16T05:21:29;8.90;99.90
44817;DHT22;30529;53.570;9.964;2023-04-16T05:23:55;8.90;99.90
44817;DHT22;30529;53.570;9.964;2023-04-16T05:26:21;8.90;99.90
44817;DHT22;30529;53.570;9.964;2023-04-16T05:28:47;9.00;99.90
44817;DHT22;30529;53.570;9.964;2023-04-16T05:31:13;9.00;99.90
44817;DHT22;30529;53.570;9.964;2023-04-16T05:33:39;9.00;99.90
44817;DHT22;30529;53.570;9.964;2023-04-16T05:36:08;9.00;99.90
44817;DHT22;30529;53.570;9.964;2023-04-16T05:38:34;9.00;99.90
44817;DHT22;30529;53.570;9.964;2023-04-16T05:41:00;9.00;99.90
44817;DHT22;30529;53.570;9.964;2023-04-16T05:43:26;9.00;99.90
44817;DHT22;30529;53.570;9.964;2023-04-16T05:45:51;9.00;99.90
44817;DHT22;30529;53.570;9.964;2023-04-16T05:48:17;9.00;99.90
44817;DHT22;30529;53.570;9.964;2023-04-16T05:50:44;9.00;99.90
44817;DHT22;30529;53.570;9.964;2023-04-16T05:53:10;8.90;99.90
44817;DHT22;30529;53.570;9.964;2023-04-16T05:55:38;8.90;99.90
44817;DHT22;30529;53.570;9.964;2023-04-16T05:58:04;9.00;99.90
44817;DHT22;30529;53.570;9.964;2023-04-16T06:00:31;9.00;99.90
44817;DHT22;30529;53.570;9.964;2023-04-16T06:02:57;9.00;99.90
44817;DHT22;30529;53.570;9.964;2023-04-16T06:05:25;9.00;99.90
44817;DHT22;30529;53.570;9.964;2023-04-16T06:07:51;9.00;99.90
44817;DHT22;30529;53.570;9.964;2023-04-16T06:10:17;9.00;99.90
44817;DHT22;30529;53.570;9.964;2023-04-16T06:12:44;9.10;99.90
44817;DHT22;30529;53.570;9.964;2023-04-16T06:15:10;9.10;99.90
44817;DHT22;30529;53.570;9.964;2023-04-16T06:17:36;9.10;99.90
44817;DHT22;30529;53.570;9.964;2023-04-16T06:20:02;9.20;99.90
44817;DHT22;30529;53.570;9.964;2023-04-16T06:22:28;9.20;99.90
44817;DHT22;30529;53.570;9.964;2023-04-16T06:24:54;9.30;99.90
44817;DHT22;30529;53.570;9.964;2023-04-16T06:27:20;9.30;99.90
44817;DHT22;30529;53.570;9.964;2023-04-16T06:29:46;9.30;99.90
44817;DHT22;30529;53.570;9.964;2023-04-16T06:32:12;9.30;99.90
44817;DHT22;30529;53.570;9.964;2023-04-16T06:34:38;9.30;99.90
44817;DHT22;30529;53.570;9.964;2023-04-16T06:37:04;9.40;99.90
44817;DHT22;30529;53.570;9.964;2023-04-16T06:39:30;9.30;99.90
44817;DHT22;30529;53.570;9.964;2023-04-16T06:41:56;9.30;99.90
44817;DHT22;30529;53.570;9.964;2023-04-16T06:44:22;9.40;99.90
44817;DHT22;30529;53.570;9.964;2023-04-16T06:46:49;9.40;99.90
44817;DHT22;30529;53.570;9.964;2023-04-16T06:49:15;9.30;99.90
44817;DHT22;30529;53.570;9.964;2023-04-16T06:51:41;9.30;99.90
44817;DHT22;30529;53.570;9.964;2023-04-16T06:54:07;9.30;99.90
44817;DHT22;30529;53.570;9.964;2023-04-16T06:56:33;9.40;99.90
44817;DHT22;30529;53.570;9.964;2023-04-16T06:59:00;9.30;99.90
44817;DHT22;30529;53.570;9.964;2023-04-16T07:01:27;9.40;99.90
44817;DHT22;30529;53.570;9.964;2023-04-16T07:03:53;9.40;99.90
44817;DHT22;30529;53.570;9.964;2023-04-16T07:06:19;9.40;99.90
44817;DHT22;30529;53.570;9.964;2023-04-16T07:08:45;9.40;99.90
44817;DHT22;30529;53.570;9.964;2023-04-16T07:11:11;9.40;99.90
44817;DHT22;30529;53.570;9.964;2023-04-16T07:13:37;9.60;99.90
44817;DHT22;30529;53.570;9.964;2023-04-16T07:16:03;9.50;99.90
44817;DHT22;30529;53.570;9.964;2023-04-16T07:18:29;9.70;99.90
44817;DHT22;30529;53.570;9.964;2023-04-16T07:20:55;9.70;99.90
44817;DHT22;30529;53.570;9.964;2023-04-16T07:23:22;9.80;99.90
44817;DHT22;30529;53.570;9.964;2023-04-16T07:25:48;9.90;99.90
44817;DHT22;30529;53.570;9.964;2023-04-16T07:28:14;10.00;99.90
44817;DHT22;30529;53.570;9.964;2023-04-16T07:30:42;10.00;99.90
44817;DHT22;30529;53.570;9.964;2023-04-16T07:33:08;10.10;99.90
44817;DHT22;30529;53.570;9.964;2023-04-16T07:35:34;10.00;99.90
44817;DHT22;30529;53.570;9.964;2023-04-16T07:38:00;10.10;99.90
44817;DHT22;30529;53.570;9.964;2023-04-16T07:40:26;10.10;99.90
44817;DHT22;30529;53.570;9.964;2023-04-16T07:42:54;10.20;99.90
44817;DHT22;30529;53.570;9.964;2023-04-16T07:45:20;10.20;99.90
44817;DHT22;30529;53.570;9.964;2023-04-16T07:47:46;10.20;99.90
44817;DHT22;30529;53.570;9.964;2023-04-16T07:50:12;10.10;99.90
44817;DHT22;30529;53.570;9.964;2023-04-16T07:52:38;9.90;99.90
44817;DHT22;30529;53.570;9.964;2023-04-16T07:55:07;9.90;99.90
44817;DHT22;30529;53.570;9.964;2023-04-16T07:57:34;10.00;99.90
44817;DHT22;30529;53.570;9.964;2023-04-16T07:59:59;10.10;99.90
44817;DHT22;30529;53.570;9.964;2023-04-16T08:02:30;10.20;99.90
44817;DHT22;30529;53.570;9.964;2023-04-16T08:04:56;10.10;99.90
44817;DHT22;30529;53.570;9.964;2023-04-16T08:07:22;10.30;99.90
44817;DHT22;30529;53.570;9.964;2023-04-16T08:09:50;10.20;99.90
44817;DHT22;30529;53.570;9.964;2023-04-16T08:12:16;10.20;99.90
44817;DHT22;30529;53.570;9.964;2023-04-16T08:14:44;10.30;99.90
44817;DHT22;30529;53.570;9.964;2023-04-16T08:17:11;10.40;99.90
44817;DHT22;30529;53.570;9.964;2023-04-16T08:19:37;10.30;99.90
44817;DHT22;30529;53.570;9.964;2023-04-16T08:22:03;10.50;99.90
44817;DHT22;30529;53.570;9.964;2023-04-16T08:24:29;10.40;99.90
44817;DHT22;30529;53.570;9.964;2023-04-16T08:26:55;10.40;99.90
44817;DHT22;30529;53.570;9.964;2023-04-16T08:29:21;10.40;99.90
44817;DHT22;30529;53.570;9.964;2023-04-16T08:31:54;10.30;99.90
44817;DHT22;30529;53.570;9.964;2023-04-16T08:34:20;10.50;99.90
44817;DHT22;30529;53.570;9.964;2023-04-16T08:36:46;10.50;99.90
44817;DHT22;30529;53.570;9.964;2023-04-16T08:39:12;10.60;99.90
44817;DHT22;30529;53.570;9.964;2023-04-16T08:41:42;10.90;99.90
44817;DHT22;30529;53.570;9.964;2023-04-16T08:44:15;11.00;99.90
44817;DHT22;30529;53.570;9.964;2023-04-16T08:46:45;11.10;99.90
44817;DHT22;30529;53.570;9.964;2023-04-16T08:49:15;11.10;99.90
44817;DHT22;30529;53.570;9.964;2023-04-16T08:51:47;11.10;99.90
44817;DHT22;30529;53.570;9.964;2023-04-16T08:57:05;10.80;99.90
44817;DHT22;30529;53.570;9.964;2023-04-16T08:59:32;11.00;99.90
44817;DHT22;30529;53.570;9.964;2023-04-16T09:01:59;11.20;99.90
44817;DHT22;30529;53.570;9.964;2023-04-16T09:04:26;11.40;99.90
44817;DHT22;30529;53.570;9.964;2023-04-16T09:06:54;11.60;99.90
44817;DHT22;30529;53.570;9.964;2023-04-16T09:09:22;11.60;99.90
44817;DHT22;30529;53.570;9.964;2023-04-16T09:11:52;11.80;99.90
44817;DHT22;30529;53.570;9.964;2023-04-16T09:14:19;12.10;99.90
44817;DHT22;30529;53.570;9.964;2023-04-16T09:16:45;12.00;99.90
44817;DHT22;30529;53.570;9.964;2023-04-16T09:19:15;11.90;99.90
44817;DHT22;30529;53.570;9.964;2023-04-16T09:21:45;12.00;99.90
44817;DHT22;30529;53.570;9.964;2023-04-16T09:24:12;12.20;99.90
44817;DHT22;30529;53.570;9.964;2023-04-16T09:26:38;12.50;99.90
44817;DHT22;30529;53.570;9.964;2023-04-16T09:29:04;12.70;99.90
44817;DHT22;30529;53.570;9.964;2023-04-16T09:31:30;12.60;99.90
44817;DHT22;30529;53.570;9.964;2023-04-16T09:34:04;12.60;99.90
44817;DHT22;30529;53.570;9.964;2023-04-16T09:36:31;12.10;99.90
44817;DHT22;30529;53.570;9.964;2023-04-16T09:38:58;12.20;99.90
44817;DHT22;30529;53.570;9.964;2023-04-16T09:41:29;12.10;99.90
44817;DHT22;30529;53.570;9.964;2023-04-16T09:44:00;12.00;99.90
44817;DHT22;30529;53.570;9.964;2023-04-16T09:46:34;12.20;99.90
44817;DHT22;30529;53.570;9.964;2023-04-16T09:49:27;12.10;99.90
44817;DHT22;30529;53.570;9.964;2023-04-16T09:51:53;12.00;99.90
44817;DHT22;30529;53.570;9.964;2023-04-16T09:54:20;12.00;99.90
44817;DHT22;30529;53.570;9.964;2023-04-16T09:56:46;11.70;99.90
44817;DHT22;30529;53.570;9.964;2023-04-16T09:59:16;11.90;99.90
44817;DHT22;30529;53.570;9.964;2023-04-16T10:01:42;11.70;99.90
44817;DHT22;30529;53.570;9.964;2023-04-16T10:04:11;11.80;99.90
44817;DHT22;30529;53.570;9.964;2023-04-16T10:06:37;11.80;99.90
44817;DHT22;30529;53.570;9.964;2023-04-16T10:09:06;11.90;99.90
44817;DHT22;30529;53.570;9.964;2023-04-16T10:11:33;11.70;99.90
44817;DHT22;30529;53.570;9.964;2023-04-16T10:13:59;12.00;99.90
44817;DHT22;30529;53.570;9.964;2023-04-16T10:16:29;12.00;99.90
44817;DHT22;30529;53.570;9.964;2023-04-16T10:19:02;12.00;99.90
44817;DHT22;30529;53.570;9.964;2023-04-16T10:21:28;11.90;99.90
44817;DHT22;30529;53.570;9.964;2023-04-16T10:24:01;11.80;99.90
44817;DHT22;30529;53.570;9.964;2023-04-16T10:26:29;11.70;99.90
44817;DHT22;30529;53.570;9.964;2023-04-16T10:28:57;11.60;99.90
44817;DHT22;30529;53.570;9.964;2023-04-16T10:31:23;11.60;99.90
44817;DHT22;30529;53.570;9.964;2023-04-16T10:33:51;11.50;99.90
44817;DHT22;30529;53.570;9.964;2023-04-16T10:36:22;11.60;99.90
44817;DHT22;30529;53.570;9.964;2023-04-16T10:38:49;11.70;99.90
44817;DHT22;30529;53.570;9.964;2023-04-16T10:41:15;12.00;99.90
44817;DHT22;30529;53.570;9.964;2023-04-16T10:43:46;11.90;99.90
44817;DHT22;30529;53.570;9.964;2023-04-16T10:46:32;12.00;99.90
44817;DHT22;30529;53.570;9.964;2023-04-16T10:49:11;11.90;99.90
44817;DHT22;30529;53.570;9.964;2023-04-16T10:51:39;12.20;99.90
44817;DHT22;30529;53.570;9.964;2023-04-16T10:56:36;12.60;99.90
44817;DHT22;30529;53.570;9.964;2023-04-16T10:59:07;12.40;99.90
44817;DHT22;30529;53.570;9.964;2023-04-16T11:01:45;12.10;99.90
44817;DHT22;30529;53.570;9.964;2023-04-16T11:09:44;12.20;99.90
44817;DHT22;30529;53.570;9.964;2023-04-16T11:12:13;12.50;99.90
44817;DHT22;30529;53.570;9.964;2023-04-16T11:14:40;12.40;99.90
44817;DHT22;30529;53.570;9.964;2023-04-16T11:17:07;12.40;99.90
44817;DHT22;30529;53.570;9.964;2023-04-16T11:19:37;12.40;99.90
44817;DHT22;30529;53.570;9.964;2023-04-16T11:22:04;12.50;99.90
44817;DHT22;30529;53.570;9.964;2023-04-16T11:24:33;12.20;99.90
44817;DHT22;30529;53.570;9.964;2023-04-16T11:26:59;11.90;99.90
44817;DHT22;30529;53.570;9.964;2023-04-16T11:29:26;11.80;99.90
44817;DHT22;30529;53.570;9.964;2023-04-16T11:31:53;11.80;99.90
44817;DHT22;30529;53.570;9.964;2023-04-16T11:34:19;11.50;99.90
44817;DHT22;30529;53.570;9.964;2023-04-16T11:36:48;11.70;99.90
44817;DHT22;30529;53.570;9.964;2023-04-16T11:39:14;11.90;99.90
44817;DHT22;30529;53.570;9.964;2023-04-16T11:41:44;11.80;99.90
44817;DHT22;30529;53.570;9.964;2023-04-16T11:44:24;11.90;99.90
44817;DHT22;30529;53.570;9.964;2023-04-16T11:46:51;12.10;99.90
44817;DHT22;30529;53.570;9.964;2023-04-16T11:49:28;12.00;99.90
44817;DHT22;30529;53.570;9.964;2023-04-16T11:51:55;11.90;99.90
44817;DHT22;30529;53.570;9.964;2023-04-16T11:54:22;12.10;99.90
44817;DHT22;30529;53.570;9.964;2023-04-16T11:56:50;12.00;99.90
44817;DHT22;30529;53.570;9.964;2023-04-16T11:59:22;12.00;99.90
44817;DHT22;30529;53.570;9.964;2023-04-16T12:01:50;11.90;99.90
44817;DHT22;30529;53.570;9.964;2023-04-16T12:04:19;11.90;99.90
44817;DHT22;30529;53.570;9.964;2023-04-16T12:09:38;12.10;99.90
44817;DHT22;30529;53.570;9.964;2023-04-16T12:12:04;12.00;99.90
44817;DHT22;30529;53.570;9.964;2023-04-16T12:14:31;12.00;99.90
44817;DHT22;30529;53.570;9.964;2023-04-16T12:17:16;11.90;99.90
44817;DHT22;30529;53.570;9.964;2023-04-16T12:19:55;11.80;99.90
44817;DHT22;30529;53.570;9.964;2023-04-16T12:22:35;11.70;99.90
44817;DHT22;30529;53.570;9.964;2023-04-16T12:25:06;11.50;99.90
44817;DHT22;30529;53.570;9.964;2023-04-16T12:27:49;11.40;99.90
44817;DHT22;30529;53.570;9.964;2023-04-16T12:30:18;11.50;99.90
44817;DHT22;30529;53.570;9.964;2023-04-16T12:32:46;11.50;99.90
44817;DHT22;30529;53.570;9.964;2023-04-16T12:35:13;11.60;99.90
44817;DHT22;30529;53.570;9.964;2023-04-16T12:37:53;11.80;99.90
44817;DHT22;30529;53.570;9.964;2023-04-16T12:40:19;11.80;99.90
44817;DHT22;30529;53.570;9.964;2023-04-16T12:42:45;11.60;99.90
44817;DHT22;30529;53.570;9.964;2023-04-16T12:45:11;11.70;99.90
44817;DHT22;30529;53.570;9.964;2023-04-16T12:47:37;11.70;99.90
44817;DHT22;30529;53.570;9.964;2023-04-16T12:50:03;11.60;99.90
44817;DHT22;30529;53.570;9.964;2023-04-16T12:52:29;11.70;99.90
44817;DHT22;30529;53.570;9.964;2023-04-16T12:54:55;11.80;99.90
44817;DHT22;30529;53.570;9.964;2023-04-16T12:57:21;11.80;99.90
44817;DHT22;30529;53.570;9.964;2023-04-16T12:59:56;11.80;99.90
44817;DHT22;30529;53.570;9.964;2023-04-16T13:02:24;11.90;99.90
44817;DHT22;30529;53.570;9.964;2023-04-16T13:04:51;12.00;99.90
44817;DHT22;30529;53.570;9.964;2023-04-16T13:07:17;12.10;99.90
44817;DHT22;30529;53.570;9.964;2023-04-16T13:09:44;11.90;99.90
44817;DHT22;30529;53.570;9.964;2023-04-16T13:12:11;11.90;99.90
44817;DHT22;30529;53.570;9.964;2023-04-16T13:14:37;11.70;99.90
44817;DHT22;30529;53.570;9.964;2023-04-16T13:17:03;11.80;99.90
44817;DHT22;30529;53.570;9.964;2023-04-16T13:19:30;11.90;99.90
44817;DHT22;30529;53.570;9.964;2023-04-16T13:21:56;11.90;99.90
44817;DHT22;30529;53.570;9.964;2023-04-16T13:24:23;11.80;99.90
44817;DHT22;30529;53.570;9.964;2023-04-16T13:26:49;11.80;99.90
44817;DHT22;30529;53.570;9.964;2023-04-16T13:29:18;11.80;99.90
44817;DHT22;30529;53.570;9.964;2023-04-16T13:31:45;11.80;99.90
44817;DHT22;30529;53.570;9.964;2023-04-16T13:34:11;11.80;99.90
44817;DHT22;30529;53.570;9.964;2023-04-16T13:36:38;11.90;99.90
44817;DHT22;30529;53.570;9.964;2023-04-16T13:39:03;11.70;99.90
44817;DHT22;30529;53.570;9.964;2023-04-16T13:41:35;11.80;99.90
44817;DHT22;30529;53.570;9.964;2023-04-16T13:44:02;11.70;99.90
44817;DHT22;30529;53.570;9.964;2023-04-16T13:46:28;11.70;99.90
44817;DHT22;30529;53.570;9.964;2023-04-16T13:48:54;11.70;99.90
44817;DHT22;30529;53.570;9.964;2023-04-16T13:51:20;11.60;99.90
44817;DHT22;30529;53.570;9.964;2023-04-16T13:53:46;11.70;99.90
44817;DHT22;30529;53.570;9.964;2023-04-16T13:56:12;11.50;99.90
44817;DHT22;30529;53.570;9.964;2023-04-16T13:58:39;11.60;99.90
44817;DHT22;30529;53.570;9.964;2023-04-16T14:01:06;11.60;99.90
44817;DHT22;30529;53.570;9.964;2023-04-16T14:03:32;11.50;99.90
44817;DHT22;30529;53.570;9.964;2023-04-16T14:06:04;11.50;99.90
44817;DHT22;30529;53.570;9.964;2023-04-16T14:08:30;11.60;99.90
44817;DHT22;30529;53.570;9.964;2023-04-16T14:10:57;11.70;99.90
44817;DHT22;30529;53.570;9.964;2023-04-16T14:13:23;11.90;99.90
44817;DHT22;30529;53.570;9.964;2023-04-16T14:15:52;11.80;99.90
44817;DHT22;30529;53.570;9.964;2023-04-16T14:18:18;11.80;99.90
44817;DHT22;30529;53.570;9.964;2023-04-16T14:20:44;11.80;99.90
44817;DHT22;30529;53.570;9.964;2023-04-16T14:23:10;12.00;99.90
44817;DHT22;30529;53.570;9.964;2023-04-16T14:25:37;11.90;99.90
44817;DHT22;30529;53.570;9.964;2023-04-16T14:28:03;11.70;99.90
44817;DHT22;30529;53.570;9.964;2023-04-16T14:30:29;11.70;99.90
44817;DHT22;30529;53.570;9.964;2023-04-16T14:32:55;11.90;99.90
44817;DHT22;30529;53.570;9.964;2023-04-16T14:35:22;11.90;99.90
44817;DHT22;30529;53.570;9.964;2023-04-16T14:37:48;11.90;99.90
44817;DHT22;30529;53.570;9.964;2023-04-16T14:40:14;11.80;99.90
44817;DHT22;30529;53.570;9.964;2023-04-16T14:42:40;11.80;99.90
44817;DHT22;30529;53.570;9.964;2023-04-16T14:45:07;11.90;99.90
44817;DHT22;30529;53.570;9.964;2023-04-16T14:47:34;11.90;99.90
44817;DHT22;30529;53.570;9.964;2023-04-16T14:50:01;11.90;99.90
44817;DHT22;30529;53.570;9.964;2023-04-16T14:52:27;11.90;99.90
44817;DHT22;30529;53.570;9.964;2023-04-16T14:54:53;11.90;99.90
44817;DHT22;30529;53.570;9.964;2023-04-16T14:57:20;11.90;99.90
44817;DHT22;30529;53.570;9.964;2023-04-16T14:59:47;11.90;99.90
44817;DHT22;30529;53.570;9.964;2023-04-16T15:02:14;11.80;99.90
44817;DHT22;30529;53.570;9.964;2023-04-16T15:04:40;11.60;99.90
44817;DHT22;30529;53.570;9.964;2023-04-16T15:07:06;11.70;99.90
44817;DHT22;30529;53.570;9.964;2023-04-16T15:09:33;11.50;99.90
44817;DHT22;30529;53.570;9.964;2023-04-16T15:11:59;11.70;99.90
44817;DHT22;30529;53.570;9.964;2023-04-16T15:14:25;11.90;99.90
44817;DHT22;30529;53.570;9.964;2023-04-16T15:16:52;11.80;99.90
44817;DHT22;30529;53.570;9.964;2023-04-16T15:19:18;11.70;99.90
44817;DHT22;30529;53.570;9.964;2023-04-16T15:21:44;11.60;99.90
44817;DHT22;30529;53.570;9.964;2023-04-16T15:24:10;11.60;99.90
44817;DHT22;30529;53.570;9.964;2023-04-16T15:26:36;11.50;99.90
44817;DHT22;30529;53.570;9.964;2023-04-16T15:29:02;11.70;99.90
44817;DHT22;30529;53.570;9.964;2023-04-16T15:31:28;11.70;99.90
44817;DHT22;30529;53.570;9.964;2023-04-16T15:33:55;11.70;99.90
44817;DHT22;30529;53.570;9.964;2023-04-16T15:36:21;11.90;99.90
44817;DHT22;30529;53.570;9.964;2023-04-16T15:38:47;11.90;99.90
44817;DHT22;30529;53.570;9.964;2023-04-16T15:41:13;11.90;99.90
44817;DHT22;30529;53.570;9.964;2023-04-16T15:43:39;11.70;99.90
44817;DHT22;30529;53.570;9.964;2023-04-16T15:46:05;11.70;99.90
44817;DHT22;30529;53.570;9.964;2023-04-16T15:48:32;11.80;99.90
44817;DHT22;30529;53.570;9.964;2023-04-16T15:50:58;11.80;99.90